sensor_id;sensor_type;location;lat;lon;timestamp;pressure;altitude;pressure_sealevel;temperature;humidity
64713;BME280;51140;45.340;5.980;2023-09-19T00:02:01;98359.88;;;15.73;100.00
64713;BME280;51140;45.340;5.980;2023-09-19T00:04:31;98363.00;;;15.94;100.00
64713;BME280;51140;45.340;5.980;2023-09-19T00:06:58;98366.16;;;16.15;100.00
64713;BME280;51140;45.340;5.980;2023-09-19T00:09:23;98370.34;;;16.34;100.00
64713;BME280;51140;45.340;5.980;2023-09-19T00:11:52;98365.25;;;16.19;100.00
64713;BME280;51140;45.340;5.980;2023-09-19T00:14:17;98371.53;;;15.96;100.00
64713;BME280;51140;45.340;5.980;2023-09-19T00:16:43;98374.47;;;16.13;100.00
64713;BME280;51140;45.340;5.980;2023-09-19T00:19:08;98376.56;;;16.16;100.00
64713;BME280;51140;45.340;5.980;2023-09-19T00:21:34;98369.28;;;16.03;100.00
64713;BME280;51140;45.340;5.980;2023-09-19T00:24:06;98373.22;;;15.92;100.00
64713;BME280;51140;45.340;5.980;2023-09-19T00:26:32;98376.66;;;16.11;100.00
64713;BME280;51140;45.340;5.980;2023-09-19T00:28:57;98375.56;;;16.12;100.00
64713;BME280;51140;45.340;5.980;2023-09-19T00:31:29;98372.69;;;16.09;100.00
64713;BME280;51140;45.340;5.980;2023-09-19T00:33:55;98374.81;;;15.93;100.00
64713;BME280;51140;45.340;5.980;2023-09-19T00:36:22;98372.31;;;16.15;100.00
64713;BME280;51140;45.340;5.980;2023-09-19T00:38:48;98365.59;;;16.31;100.00
64713;BME280;51140;45.340;5.980;2023-09-19T00:41:13;98370.03;;;16.22;100.00
64713;BME280;51140;45.340;5.980;2023-09-19T00:43:39;98364.28;;;15.83;100.00
64713;BME280;51140;45.340;5.980;2023-09-19T00:46:06;98362.72;;;15.95;100.00
64713;BME280;51140;45.340;5.980;2023-09-19T00:48:32;98369.66;;;15.96;100.00
64713;BME280;51140;45.340;5.980;2023-09-19T00:51:03;98356.72;;;16.03;100.00
64713;BME280;51140;45.340;5.980;2023-09-19T00:53:30;98357.88;;;15.97;100.00
64713;BME280;51140;45.340;5.980;2023-09-19T00:55:56;98356.84;;;16.26;100.00
64713;BME280;51140;45.340;5.980;2023-09-19T00:58:22;98358.91;;;16.15;100.00
64713;BME280;51140;45.340;5.980;2023-09-19T01:00:50;98369.31;;;16.17;100.00
64713;BME280;51140;45.340;5.980;2023-09-19T01:03:17;98376.81;;;16.01;100.00
64713;BME280;51140;45.340;5.980;2023-09-19T01:05:43;98370.38;;;16.02;100.00
64713;BME280;51140;45.340;5.980;2023-09-19T01:08:09;98373.41;;;15.95;100.00
64713;BME280;51140;45.340;5.980;2023-09-19T01:11:00;98373.84;;;16.02;100.00
64713;BME280;51140;45.340;5.980;2023-09-19T01:13:52;98365.91;;;15.97;100.00
64713;BME280;51140;45.340;5.980;2023-09-19T01:16:42;98347.34;;;16.01;100.00
64713;BME280;51140;45.340;5.980;2023-09-19T01:30:35;98338.06;;;16.12;100.00
64713;BME280;51140;45.340;5.980;2023-09-19T01:33:06;98355.13;;;16.16;100.00
64713;BME280;51140;45.340;5.980;2023-09-19T01:35:32;98351.63;;;16.02;100.00
64713;BME280;51140;45.340;5.980;2023-09-19T01:37:59;98370.88;;;16.04;100.00
64713;BME280;51140;45.340;5.980;2023-09-19T01:40:25;98364.19;;;16.20;100.00
64713;BME280;51140;45.340;5.980;2023-09-19T01:42:57;98369.66;;;16.29;100.00
64713;BME280;51140;45.340;5.980;2023-09-19T01:51:46;98370.94;;;16.31;100.00
64713;BME280;51140;45.340;5.980;2023-09-19T01:54:19;98364.44;;;16.05;100.00
64713;BME280;51140;45.340;5.980;2023-09-19T01:56:56;98362.53;;;15.92;100.00
64713;BME280;51140;45.340;5.980;2023-09-19T01:59:34;98362.38;;;16.16;100.00
64713;BME280;51140;45.340;5.980;2023-09-19T02:02:00;98359.44;;;16.31;100.00
64713;BME280;51140;45.340;5.980;2023-09-19T02:04:27;98355.47;;;16.28;100.00
64713;BME280;51140;45.340;5.980;2023-09-19T02:06:53;98355.34;;;16.33;100.00
64713;BME280;51140;45.340;5.980;2023-09-19T02:09:19;98368.06;;;16.41;100.00
64713;BME280;51140;45.340;5.980;2023-09-19T02:11:44;98366.75;;;16.25;100.00
64713;BME280;51140;45.340;5.980;2023-09-19T02:14:10;98361.19;;;16.35;100.00
64713;BME280;51140;45.340;5.980;2023-09-19T02:16:35;98364.78;;;16.31;100.00
64713;BME280;51140;45.340;5.980;2023-09-19T02:19:00;98362.00;;;16.22;100.00
64713;BME280;51140;45.340;5.980;2023-09-19T02:21:30;98352.44;;;16.16;100.00
64713;BME280;51140;45.340;5.980;2023-09-19T02:23:56;98356.25;;;16.15;100.00
64713;BME280;51140;45.340;5.980;2023-09-19T02:26:21;98356.59;;;15.95;100.00
64713;BME280;51140;45.340;5.980;2023-09-19T02:28:50;98368.47;;;15.89;100.00
64713;BME280;51140;45.340;5.980;2023-09-19T02:31:15;98368.19;;;15.72;100.00
64713;BME280;51140;45.340;5.980;2023-09-19T02:33:41;98362.25;;;15.75;100.00
64713;BME280;51140;45.340;5.980;2023-09-19T02:36:07;98359.59;;;15.75;100.00
64713;BME280;51140;45.340;5.980;2023-09-19T02:38:34;98367.03;;;15.78;100.00
64713;BME280;51140;45.340;5.980;2023-09-19T02:40:59;98359.22;;;15.63;100.00
64713;BME280;51140;45.340;5.980;2023-09-19T02:43:25;98358.03;;;15.55;100.00
64713;BME280;51140;45.340;5.980;2023-09-19T02:45:51;98354.66;;;15.44;100.00
64713;BME280;51140;45.340;5.980;2023-09-19T02:48:18;98358.16;;;15.64;100.00
64713;BME280;51140;45.340;5.980;2023-09-19T02:50:44;98358.66;;;15.66;100.00
64713;BME280;51140;45.340;5.980;2023-09-19T02:53:09;98356.66;;;15.90;100.00
64713;BME280;51140;45.340;5.980;2023-09-19T02:55:38;98362.66;;;15.82;100.00
64713;BME280;51140;45.340;5.980;2023-09-19T02:58:06;98360.13;;;15.90;100.00
64713;BME280;51140;45.340;5.980;2023-09-19T03:00:33;98363.13;;;15.70;100.00
64713;BME280;51140;45.340;5.980;2023-09-19T03:03:02;98350.56;;;15.52;100.00
64713;BME280;51140;45.340;5.980;2023-09-19T03:05:28;98347.94;;;15.66;100.00
64713;BME280;51140;45.340;5.980;2023-09-19T03:07:56;98342.34;;;15.49;100.00
64713;BME280;51140;45.340;5.980;2023-09-19T03:10:22;98340.28;;;15.40;100.00
64713;BME280;51140;45.340;5.980;2023-09-19T03:12:48;98349.16;;;15.17;100.00
64713;BME280;51140;45.340;5.980;2023-09-19T03:15:14;98344.63;;;15.36;100.00
64713;BME280;51140;45.340;5.980;2023-09-19T03:17:44;98330.88;;;15.43;100.00
64713;BME280;51140;45.340;5.980;2023-09-19T03:20:11;98333.63;;;15.19;100.00
64713;BME280;51140;45.340;5.980;2023-09-19T03:22:38;98337.97;;;15.15;100.00
64713;BME280;51140;45.340;5.980;2023-09-19T03:25:06;98341.66;;;15.38;100.00
64713;BME280;51140;45.340;5.980;2023-09-19T03:27:34;98348.53;;;15.63;100.00
64713;BME280;51140;45.340;5.980;2023-09-19T03:30:00;98351.13;;;15.68;100.00
64713;BME280;51140;45.340;5.980;2023-09-19T03:32:25;98351.25;;;15.76;100.00
64713;BME280;51140;45.340;5.980;2023-09-19T03:34:51;98353.44;;;15.56;100.00
64713;BME280;51140;45.340;5.980;2023-09-19T03:37:17;98348.47;;;15.49;100.00
64713;BME280;51140;45.340;5.980;2023-09-19T03:39:43;98350.53;;;15.33;100.00
64713;BME280;51140;45.340;5.980;2023-09-19T03:42:08;98343.75;;;15.41;100.00
64713;BME280;51140;45.340;5.980;2023-09-19T03:44:34;98345.19;;;15.15;100.00
64713;BME280;51140;45.340;5.980;2023-09-19T03:46:59;98345.16;;;14.96;100.00
64713;BME280;51140;45.340;5.980;2023-09-19T03:49:25;98344.47;;;15.09;100.00
64713;BME280;51140;45.340;5.980;2023-09-19T03:51:50;98339.47;;;15.21;100.00
64713;BME280;51140;45.340;5.980;2023-09-19T03:54:15;98341.94;;;15.18;100.00
64713;BME280;51140;45.340;5.980;2023-09-19T03:56:42;98343.31;;;15.15;100.00
64713;BME280;51140;45.340;5.980;2023-09-19T03:59:09;98344.63;;;15.36;100.00
64713;BME280;51140;45.340;5.980;2023-09-19T04:01:34;98358.69;;;15.05;100.00
64713;BME280;51140;45.340;5.980;2023-09-19T04:04:00;98364.25;;;15.08;100.00
64713;BME280;51140;45.340;5.980;2023-09-19T04:06:36;98357.00;;;15.32;100.00
64713;BME280;51140;45.340;5.980;2023-09-19T04:09:03;98365.88;;;15.28;100.00
64713;BME280;51140;45.340;5.980;2023-09-19T04:11:29;98359.38;;;15.34;100.00
64713;BME280;51140;45.340;5.980;2023-09-19T04:13:55;98362.75;;;15.39;100.00
64713;BME280;51140;45.340;5.980;2023-09-19T04:16:21;98362.06;;;15.53;100.00
64713;BME280;51140;45.340;5.980;2023-09-19T04:18:46;98361.88;;;15.44;100.00
64713;BME280;51140;45.340;5.980;2023-09-19T04:21:11;98360.28;;;15.24;100.00
64713;BME280;51140;45.340;5.980;2023-09-19T04:23:37;98354.91;;;14.87;100.00
64713;BME280;51140;45.340;5.980;2023-09-19T04:26:02;98365.88;;;14.62;100.00
64713;BME280;51140;45.340;5.980;2023-09-19T04:28:30;98362.34;;;14.90;100.00
64713;BME280;51140;45.340;5.980;2023-09-19T04:30:56;98363.78;;;14.82;100.00
64713;BME280;51140;45.340;5.980;2023-09-19T04:33:21;98366.31;;;14.93;100.00
64713;BME280;51140;45.340;5.980;2023-09-19T04:35:49;98361.28;;;15.10;100.00
64713;BME280;51140;45.340;5.980;2023-09-19T04:38:15;98360.25;;;15.29;100.00
64713;BME280;51140;45.340;5.980;2023-09-19T04:40:41;98369.41;;;15.42;100.00
64713;BME280;51140;45.340;5.980;2023-09-19T04:43:06;98371.94;;;15.33;100.00
64713;BME280;51140;45.340;5.980;2023-09-19T04:45:32;98373.34;;;15.50;100.00
64713;BME280;51140;45.340;5.980;2023-09-19T04:47:58;98378.31;;;15.37;100.00
64713;BME280;51140;45.340;5.980;2023-09-19T04:50:23;98387.63;;;15.40;100.00
64713;BME280;51140;45.340;5.980;2023-09-19T04:52:53;98391.75;;;15.32;100.00
64713;BME280;51140;45.340;5.980;2023-09-19T04:55:19;98391.75;;;15.32;100.00
64713;BME280;51140;45.340;5.980;2023-09-19T04:57:48;98383.75;;;15.51;100.00
64713;BME280;51140;45.340;5.980;2023-09-19T05:00:16;98397.16;;;14.85;100.00
64713;BME280;51140;45.340;5.980;2023-09-19T05:02:42;98395.75;;;14.69;100.00
64713;BME280;51140;45.340;5.980;2023-09-19T05:05:08;98399.09;;;15.03;100.00
64713;BME280;51140;45.340;5.980;2023-09-19T05:07:41;98394.78;;;15.26;100.00
64713;BME280;51140;45.340;5.980;2023-09-19T05:10:08;98404.38;;;15.27;100.00
64713;BME280;51140;45.340;5.980;2023-09-19T05:12:34;98407.66;;;15.42;100.00
64713;BME280;51140;45.340;5.980;2023-09-19T05:15:00;98409.72;;;15.51;100.00
64713;BME280;51140;45.340;5.980;2023-09-19T05:17:27;98405.72;;;15.67;100.00
64713;BME280;51140;45.340;5.980;2023-09-19T05:19:52;98406.66;;;15.76;100.00
64713;BME280;51140;45.340;5.980;2023-09-19T05:22:18;98408.91;;;15.69;100.00
64713;BME280;51140;45.340;5.980;2023-09-19T05:24:43;98417.38;;;15.76;100.00
64713;BME280;51140;45.340;5.980;2023-09-19T05:27:10;98426.84;;;15.68;100.00
64713;BME280;51140;45.340;5.980;2023-09-19T05:29:35;98430.03;;;15.70;100.00
64713;BME280;51140;45.340;5.980;2023-09-19T05:32:01;98435.81;;;15.16;100.00
64713;BME280;51140;45.340;5.980;2023-09-19T05:34:26;98427.38;;;15.28;100.00
64713;BME280;51140;45.340;5.980;2023-09-19T05:36:55;98430.66;;;15.43;100.00
64713;BME280;51140;45.340;5.980;2023-09-19T05:39:20;98431.00;;;15.61;100.00
64713;BME280;51140;45.340;5.980;2023-09-19T05:41:46;98435.59;;;15.74;100.00
64713;BME280;51140;45.340;5.980;2023-09-19T05:44:13;98431.28;;;15.78;100.00
64713;BME280;51140;45.340;5.980;2023-09-19T05:46:39;98435.44;;;15.84;100.00
64713;BME280;51140;45.340;5.980;2023-09-19T05:49:05;98429.94;;;15.94;100.00
64713;BME280;51140;45.340;5.980;2023-09-19T05:51:30;98429.94;;;15.94;100.00
64713;BME280;51140;45.340;5.980;2023-09-19T05:53:56;98427.28;;;15.75;100.00
64713;BME280;51140;45.340;5.980;2023-09-19T05:56:21;98428.94;;;15.53;100.00
64713;BME280;51140;45.340;5.980;2023-09-19T05:58:46;98429.06;;;15.42;100.00
64713;BME280;51140;45.340;5.980;2023-09-19T06:01:12;98433.59;;;15.66;100.00
64713;BME280;51140;45.340;5.980;2023-09-19T06:03:38;98431.47;;;15.81;100.00
64713;BME280;51140;45.340;5.980;2023-09-19T06:06:04;98433.50;;;15.89;100.00
64713;BME280;51140;45.340;5.980;2023-09-19T06:08:34;98434.41;;;15.98;100.00
64713;BME280;51140;45.340;5.980;2023-09-19T06:10:59;98445.56;;;16.06;100.00
64713;BME280;51140;45.340;5.980;2023-09-19T06:13:27;98450.09;;;16.24;100.00
64713;BME280;51140;45.340;5.980;2023-09-19T06:15:52;98456.44;;;16.28;100.00
64713;BME280;51140;45.340;5.980;2023-09-19T06:18:18;98454.25;;;15.97;100.00
64713;BME280;51140;45.340;5.980;2023-09-19T06:20:48;98449.91;;;16.01;100.00
64713;BME280;51140;45.340;5.980;2023-09-19T06:23:16;98452.94;;;16.14;100.00
64713;BME280;51140;45.340;5.980;2023-09-19T06:25:42;98452.97;;;16.27;100.00
64713;BME280;51140;45.340;5.980;2023-09-19T06:28:08;98455.50;;;16.37;100.00
64713;BME280;51140;45.340;5.980;2023-09-19T06:30:37;98447.72;;;16.54;100.00
64713;BME280;51140;45.340;5.980;2023-09-19T06:33:05;98454.22;;;16.48;100.00
64713;BME280;51140;45.340;5.980;2023-09-19T06:35:33;98457.88;;;16.39;100.00
64713;BME280;51140;45.340;5.980;2023-09-19T06:37:58;98461.19;;;16.49;100.00
64713;BME280;51140;45.340;5.980;2023-09-19T06:40:24;98457.91;;;16.52;100.00
64713;BME280;51140;45.340;5.980;2023-09-19T06:42:53;98455.31;;;16.47;100.00
64713;BME280;51140;45.340;5.980;2023-09-19T06:45:19;98454.81;;;16.45;100.00
64713;BME280;51140;45.340;5.980;2023-09-19T06:47:49;98460.53;;;16.57;100.00
64713;BME280;51140;45.340;5.980;2023-09-19T06:50:16;98467.69;;;16.76;100.00
64713;BME280;51140;45.340;5.980;2023-09-19T06:52:45;98466.94;;;16.89;100.00
64713;BME280;51140;45.340;5.980;2023-09-19T06:55:11;98460.38;;;16.95;100.00
64713;BME280;51140;45.340;5.980;2023-09-19T06:57:38;98462.88;;;16.91;100.00
64713;BME280;51140;45.340;5.980;2023-09-19T07:00:06;98466.63;;;16.90;100.00
64713;BME280;51140;45.340;5.980;2023-09-19T07:02:41;98469.03;;;17.05;100.00
64713;BME280;51140;45.340;5.980;2023-09-19T07:05:07;98470.09;;;17.18;100.00
64713;BME280;51140;45.340;5.980;2023-09-19T07:07:32;98476.06;;;17.01;100.00
64713;BME280;51140;45.340;5.980;2023-09-19T07:10:03;98473.97;;;16.98;100.00
64713;BME280;51140;45.340;5.980;2023-09-19T07:12:31;98476.28;;;17.05;100.00
64713;BME280;51140;45.340;5.980;2023-09-19T07:14:58;98472.09;;;17.26;100.00
64713;BME280;51140;45.340;5.980;2023-09-19T07:17:23;98467.00;;;17.38;100.00
64713;BME280;51140;45.340;5.980;2023-09-19T07:19:49;98474.56;;;17.36;100.00
64713;BME280;51140;45.340;5.980;2023-09-19T07:22:15;98477.66;;;17.30;100.00
64713;BME280;51140;45.340;5.980;2023-09-19T07:24:41;98478.88;;;17.24;100.00
64713;BME280;51140;45.340;5.980;2023-09-19T07:27:06;98474.28;;;17.24;100.00
64713;BME280;51140;45.340;5.980;2023-09-19T07:29:31;98484.81;;;17.07;100.00
64713;BME280;51140;45.340;5.980;2023-09-19T07:31:57;98479.66;;;16.97;100.00
64713;BME280;51140;45.340;5.980;2023-09-19T07:34:22;98486.78;;;16.88;100.00
64713;BME280;51140;45.340;5.980;2023-09-19T07:36:49;98492.47;;;17.00;100.00
64713;BME280;51140;45.340;5.980;2023-09-19T07:39:15;98494.56;;;17.03;100.00
64713;BME280;51140;45.340;5.980;2023-09-19T07:41:40;98494.13;;;16.96;100.00
64713;BME280;51140;45.340;5.980;2023-09-19T07:44:07;98487.72;;;16.65;100.00
64713;BME280;51140;45.340;5.980;2023-09-19T07:46:32;98499.56;;;16.64;100.00
64713;BME280;51140;45.340;5.980;2023-09-19T07:48:58;98502.41;;;16.53;100.00
64713;BME280;51140;45.340;5.980;2023-09-19T07:51:24;98503.72;;;16.37;100.00
64713;BME280;51140;45.340;5.980;2023-09-19T07:53:49;98503.72;;;16.37;100.00
64713;BME280;51140;45.340;5.980;2023-09-19T07:56:14;98502.53;;;16.62;100.00
64713;BME280;51140;45.340;5.980;2023-09-19T07:58:40;98508.38;;;16.64;100.00
64713;BME280;51140;45.340;5.980;2023-09-19T08:01:10;98508.59;;;16.68;100.00
64713;BME280;51140;45.340;5.980;2023-09-19T08:03:36;98508.72;;;16.76;100.00
64713;BME280;51140;45.340;5.980;2023-09-19T08:06:09;98513.38;;;16.84;100.00
64713;BME280;51140;45.340;5.980;2023-09-19T08:08:35;98499.06;;;16.75;100.00
64713;BME280;51140;45.340;5.980;2023-09-19T08:11:05;98518.78;;;16.98;100.00
64713;BME280;51140;45.340;5.980;2023-09-19T08:13:40;98509.84;;;17.02;100.00
64713;BME280;51140;45.340;5.980;2023-09-19T08:16:09;98520.97;;;16.96;100.00
64713;BME280;51140;45.340;5.980;2023-09-19T08:18:36;98524.16;;;16.98;100.00
64713;BME280;51140;45.340;5.980;2023-09-19T08:21:02;98518.16;;;16.87;100.00
64713;BME280;51140;45.340;5.980;2023-09-19T08:23:27;98528.06;;;16.73;100.00
64713;BME280;51140;45.340;5.980;2023-09-19T08:25:57;98526.16;;;16.60;100.00
64713;BME280;51140;45.340;5.980;2023-09-19T08:28:23;98525.69;;;16.72;100.00
64713;BME280;51140;45.340;5.980;2023-09-19T08:30:50;98519.41;;;16.63;100.00
64713;BME280;51140;45.340;5.980;2023-09-19T08:33:16;98527.94;;;16.65;100.00
64713;BME280;51140;45.340;5.980;2023-09-19T08:35:42;98520.75;;;16.92;100.00
64713;BME280;51140;45.340;5.980;2023-09-19T08:38:08;98521.66;;;17.01;100.00
64713;BME280;51140;45.340;5.980;2023-09-19T08:40:37;98524.97;;;17.12;100.00
64713;BME280;51140;45.340;5.980;2023-09-19T08:43:05;98516.38;;;16.96;100.00
64713;BME280;51140;45.340;5.980;2023-09-19T08:45:32;98518.28;;;17.09;100.00
64713;BME280;51140;45.340;5.980;2023-09-19T08:48:17;98516.00;;;17.30;100.00
64713;BME280;51140;45.340;5.980;2023-09-19T08:50:51;98516.91;;;17.53;100.00
64713;BME280;51140;45.340;5.980;2023-09-19T08:53:36;98510.75;;;17.66;100.00
64713;BME280;51140;45.340;5.980;2023-09-19T08:56:09;98513.47;;;18.02;99.12
64713;BME280;51140;45.340;5.980;2023-09-19T08:59:02;98514.81;;;18.13;98.83
64713;BME280;51140;45.340;5.980;2023-09-19T09:01:28;98506.47;;;18.01;97.93
64713;BME280;51140;45.340;5.980;2023-09-19T09:03:55;98499.97;;;18.15;98.58
64713;BME280;51140;45.340;5.980;2023-09-19T09:06:22;98498.06;;;17.94;97.30
64713;BME280;51140;45.340;5.980;2023-09-19T09:08:50;98500.06;;;17.88;99.08
64713;BME280;51140;45.340;5.980;2023-09-19T09:11:16;98500.72;;;18.29;97.78
64713;BME280;51140;45.340;5.980;2023-09-19T09:13:43;98492.59;;;18.21;97.66
64713;BME280;51140;45.340;5.980;2023-09-19T09:16:10;98498.34;;;18.06;98.48
64713;BME280;51140;45.340;5.980;2023-09-19T09:18:36;98501.59;;;17.81;100.00
64713;BME280;51140;45.340;5.980;2023-09-19T09:21:01;98492.22;;;17.92;99.71
64713;BME280;51140;45.340;5.980;2023-09-19T09:23:27;98487.13;;;17.90;99.07
64713;BME280;51140;45.340;5.980;2023-09-19T09:25:58;98488.19;;;18.25;98.23
64713;BME280;51140;45.340;5.980;2023-09-19T09:28:28;98482.22;;;18.50;96.23
64713;BME280;51140;45.340;5.980;2023-09-19T09:30:54;98480.72;;;18.44;98.05
64713;BME280;51140;45.340;5.980;2023-09-19T09:33:21;98485.63;;;18.64;95.45
64713;BME280;51140;45.340;5.980;2023-09-19T09:38:22;98477.09;;;18.40;95.85
64713;BME280;51140;45.340;5.980;2023-09-19T09:40:53;98485.44;;;18.83;91.83
64713;BME280;51140;45.340;5.980;2023-09-19T09:43:34;98481.38;;;18.94;92.32
64713;BME280;51140;45.340;5.980;2023-09-19T09:46:18;98478.22;;;19.01;92.35
64713;BME280;51140;45.340;5.980;2023-09-19T09:49:06;98471.03;;;18.35;91.97
64713;BME280;51140;45.340;5.980;2023-09-19T09:54:24;98475.25;;;18.71;89.80
64713;BME280;51140;45.340;5.980;2023-09-19T10:02:09;98459.19;;;19.36;92.76
64713;BME280;51140;45.340;5.980;2023-09-19T10:04:38;98452.63;;;19.85;93.94
64713;BME280;51140;45.340;5.980;2023-09-19T10:07:27;98452.78;;;20.15;91.29
64713;BME280;51140;45.340;5.980;2023-09-19T10:09:53;98440.44;;;20.31;89.41
64713;BME280;51140;45.340;5.980;2023-09-19T10:12:25;98434.53;;;20.46;89.43
64713;BME280;51140;45.340;5.980;2023-09-19T10:14:53;98448.72;;;20.72;88.68
64713;BME280;51140;45.340;5.980;2023-09-19T10:17:20;98453.00;;;20.73;87.02
64713;BME280;51140;45.340;5.980;2023-09-19T10:19:56;98445.28;;;20.63;88.22
64713;BME280;51140;45.340;5.980;2023-09-19T10:22:28;98447.41;;;20.87;87.80
64713;BME280;51140;45.340;5.980;2023-09-19T10:24:57;98441.16;;;20.95;87.11
64713;BME280;51140;45.340;5.980;2023-09-19T10:27:26;98439.88;;;21.09;86.84
64713;BME280;51140;45.340;5.980;2023-09-19T10:29:52;98442.41;;;21.15;82.56
64713;BME280;51140;45.340;5.980;2023-09-19T10:32:22;98435.50;;;21.26;81.25
64713;BME280;51140;45.340;5.980;2023-09-19T10:34:49;98425.25;;;21.10;85.41
64713;BME280;51140;45.340;5.980;2023-09-19T10:37:20;98422.97;;;21.21;87.57
64713;BME280;51140;45.340;5.980;2023-09-19T10:39:48;98418.97;;;20.89;85.60
64713;BME280;51140;45.340;5.980;2023-09-19T10:42:19;98415.63;;;20.92;86.05
64713;BME280;51140;45.340;5.980;2023-09-19T10:44:45;98413.22;;;20.99;84.67
64713;BME280;51140;45.340;5.980;2023-09-19T10:47:12;98416.22;;;21.36;86.84
64713;BME280;51140;45.340;5.980;2023-09-19T10:49:45;98404.91;;;21.63;80.83
64713;BME280;51140;45.340;5.980;2023-09-19T10:52:21;98403.31;;;21.41;82.73
64713;BME280;51140;45.340;5.980;2023-09-19T10:54:51;98402.19;;;21.42;79.40
64713;BME280;51140;45.340;5.980;2023-09-19T10:57:21;98401.63;;;21.07;80.59
64713;BME280;51140;45.340;5.980;2023-09-19T11:05:34;98395.06;;;20.79;85.24
64713;BME280;51140;45.340;5.980;2023-09-19T11:08:00;98390.97;;;20.01;89.43
64713;BME280;51140;45.340;5.980;2023-09-19T11:10:48;98393.03;;;19.78;89.01
64713;BME280;51140;45.340;5.980;2023-09-19T11:13:26;98387.03;;;19.64;89.11
64713;BME280;51140;45.340;5.980;2023-09-19T11:26:42;98364.78;;;20.27;83.98
64713;BME280;51140;45.340;5.980;2023-09-19T11:29:27;98360.13;;;20.45;84.21
64713;BME280;51140;45.340;5.980;2023-09-19T11:31:54;98367.09;;;20.54;89.63
64713;BME280;51140;45.340;5.980;2023-09-19T11:39:37;98358.59;;;21.02;86.77
64713;BME280;51140;45.340;5.980;2023-09-19T11:42:47;98358.13;;;21.30;81.93
64713;BME280;51140;45.340;5.980;2023-09-19T11:48:15;98363.63;;;21.13;83.07
64713;BME280;51140;45.340;5.980;2023-09-19T11:50:44;98361.75;;;21.34;82.08
64713;BME280;51140;45.340;5.980;2023-09-19T11:53:13;98363.00;;;21.36;78.35
64713;BME280;51140;45.340;5.980;2023-09-19T11:55:42;98364.63;;;21.08;81.81
64713;BME280;51140;45.340;5.980;2023-09-19T11:58:17;98363.25;;;20.93;86.87
64713;BME280;51140;45.340;5.980;2023-09-19T12:00:45;98357.25;;;20.88;83.05
64713;BME280;51140;45.340;5.980;2023-09-19T12:03:12;98367.44;;;20.82;84.91
64713;BME280;51140;45.340;5.980;2023-09-19T12:05:39;98357.81;;;21.02;86.56
64713;BME280;51140;45.340;5.980;2023-09-19T12:08:05;98347.41;;;21.42;80.69
64713;BME280;51140;45.340;5.980;2023-09-19T12:10:45;98346.06;;;21.89;80.30
64713;BME280;51140;45.340;5.980;2023-09-19T12:13:16;98351.09;;;22.11;80.17
64713;BME280;51140;45.340;5.980;2023-09-19T12:15:41;98345.44;;;22.04;78.46
64713;BME280;51140;45.340;5.980;2023-09-19T12:18:25;98340.47;;;22.06;75.27
64713;BME280;51140;45.340;5.980;2023-09-19T12:20:50;98335.50;;;21.96;75.96
64713;BME280;51140;45.340;5.980;2023-09-19T12:23:17;98335.47;;;22.41;74.98
64713;BME280;51140;45.340;5.980;2023-09-19T12:25:43;98336.53;;;22.49;74.02
64713;BME280;51140;45.340;5.980;2023-09-19T12:28:12;98336.63;;;22.40;72.53
64713;BME280;51140;45.340;5.980;2023-09-19T12:30:37;98331.88;;;22.37;76.06
64713;BME280;51140;45.340;5.980;2023-09-19T12:33:17;98331.72;;;22.21;76.80
64713;BME280;51140;45.340;5.980;2023-09-19T12:35:44;98324.78;;;22.57;71.31
64713;BME280;51140;45.340;5.980;2023-09-19T12:38:10;98324.78;;;22.57;74.93
64713;BME280;51140;45.340;5.980;2023-09-19T12:40:37;98317.47;;;22.82;75.10
64713;BME280;51140;45.340;5.980;2023-09-19T12:43:03;98330.03;;;22.74;69.54
64713;BME280;51140;45.340;5.980;2023-09-19T12:45:31;98323.47;;;22.87;77.21
64713;BME280;51140;45.340;5.980;2023-09-19T12:48:19;98314.63;;;23.14;71.81
64713;BME280;51140;45.340;5.980;2023-09-19T12:51:10;98313.38;;;23.12;76.11
64713;BME280;51140;45.340;5.980;2023-09-19T12:53:39;98306.38;;;23.23;72.46
64713;BME280;51140;45.340;5.980;2023-09-19T12:56:08;98312.69;;;23.15;67.62
64713;BME280;51140;45.340;5.980;2023-09-19T12:58:54;98316.09;;;23.12;66.40
64713;BME280;51140;45.340;5.980;2023-09-19T13:01:20;98303.44;;;23.40;68.69
64713;BME280;51140;45.340;5.980;2023-09-19T13:06:37;98299.09;;;22.99;64.91
64713;BME280;51140;45.340;5.980;2023-09-19T13:09:10;98299.16;;;23.15;74.28
64713;BME280;51140;45.340;5.980;2023-09-19T13:11:37;98297.47;;;23.10;67.89
64713;BME280;51140;45.340;5.980;2023-09-19T13:19:44;98297.78;;;22.12;76.85
64713;BME280;51140;45.340;5.980;2023-09-19T13:25:01;98294.03;;;21.92;77.78
64713;BME280;51140;45.340;5.980;2023-09-19T13:27:29;98282.75;;;22.23;71.98
64713;BME280;51140;45.340;5.980;2023-09-19T13:29:55;98283.53;;;22.60;69.07
64713;BME280;51140;45.340;5.980;2023-09-19T13:32:21;98283.06;;;22.58;65.17
64713;BME280;51140;45.340;5.980;2023-09-19T13:34:46;98273.41;;;23.21;73.61
64713;BME280;51140;45.340;5.980;2023-09-19T13:37:11;98272.03;;;23.27;73.65
64713;BME280;51140;45.340;5.980;2023-09-19T13:39:38;98275.03;;;23.37;67.91
64713;BME280;51140;45.340;5.980;2023-09-19T13:42:08;98266.56;;;23.51;71.59
64713;BME280;51140;45.340;5.980;2023-09-19T13:44:37;98270.31;;;23.47;65.61
64713;BME280;51140;45.340;5.980;2023-09-19T13:47:03;98268.25;;;23.56;73.49
64713;BME280;51140;45.340;5.980;2023-09-19T13:49:34;98261.53;;;23.65;70.39
64713;BME280;51140;45.340;5.980;2023-09-19T13:52:00;98257.28;;;23.80;67.91
64713;BME280;51140;45.340;5.980;2023-09-19T13:54:28;98257.31;;;23.12;64.87
64713;BME280;51140;45.340;5.980;2023-09-19T13:56:53;98250.44;;;23.70;67.29
64713;BME280;51140;45.340;5.980;2023-09-19T13:59:19;98254.81;;;23.75;71.43
64713;BME280;51140;45.340;5.980;2023-09-19T14:01:46;98263.69;;;23.87;64.73
64713;BME280;51140;45.340;5.980;2023-09-19T14:04:11;98248.31;;;23.48;64.32